sensor_id;sensor_type;location;lat;lon;timestamp;temperature;humidity
60039;DHT22;45916;52.734;6.544;2022-09-02T00:01:03;12.90;90.30
60039;DHT22;45916;52.734;6.544;2022-09-02T00:03:37;12.90;90.50
60039;DHT22;45916;52.734;6.544;2022-09-02T00:06:03;12.90;90.60
60039;DHT22;45916;52.734;6.544;2022-09-02T00:08:29;12.80;90.50
60039;DHT22;45916;52.734;6.544;2022-09-02T00:10:59;12.70;90.70
60039;DHT22;45916;52.734;6.544;2022-09-02T00:13:26;12.60;90.80
60039;DHT22;45916;52.734;6.544;2022-09-02T00:15:52;12.50;91.20
60039;DHT22;45916;52.734;6.544;2022-09-02T00:18:18;12.40;91.50
60039;DHT22;45916;52.734;6.544;2022-09-02T00:20:46;12.30;92.00
60039;DHT22;45916;52.734;6.544;2022-09-02T00:23:12;12.30;92.60
60039;DHT22;45916;52.734;6.544;2022-09-02T00:25:39;12.20;92.70
60039;DHT22;45916;52.734;6.544;2022-09-02T00:28:05;12.20;92.90
60039;DHT22;45916;52.734;6.544;2022-09-02T00:30:32;12.20;93.30
60039;DHT22;45916;52.734;6.544;2022-09-02T00:32:58;12.20;93.70
60039;DHT22;45916;52.734;6.544;2022-09-02T00:35:24;12.20;93.60
60039;DHT22;45916;52.734;6.544;2022-09-02T00:37:50;12.20;93.90
60039;DHT22;45916;52.734;6.544;2022-09-02T00:40:16;12.20;93.50
60039;DHT22;45916;52.734;6.544;2022-09-02T00:42:42;12.20;93.50
60039;DHT22;45916;52.734;6.544;2022-09-02T00:45:08;12.20;93.90
60039;DHT22;45916;52.734;6.544;2022-09-02T00:47:34;12.10;93.90
60039;DHT22;45916;52.734;6.544;2022-09-02T00:50:04;12.20;94.40
60039;DHT22;45916;52.734;6.544;2022-09-02T00:52:37;12.20;94.50
60039;DHT22;45916;52.734;6.544;2022-09-02T00:55:05;12.20;94.40
60039;DHT22;45916;52.734;6.544;2022-09-02T00:57:48;12.20;94.20
60039;DHT22;45916;52.734;6.544;2022-09-02T01:00:20;12.20;94.50
60039;DHT22;45916;52.734;6.544;2022-09-02T01:02:59;12.20;94.60
60039;DHT22;45916;52.734;6.544;2022-09-02T01:05:28;12.30;94.50
60039;DHT22;45916;52.734;6.544;2022-09-02T01:07:57;12.40;94.20
60039;DHT22;45916;52.734;6.544;2022-09-02T01:10:26;12.40;94.10
60039;DHT22;45916;52.734;6.544;2022-09-02T01:12:57;12.30;94.00
60039;DHT22;45916;52.734;6.544;2022-09-02T01:15:24;12.30;94.20
60039;DHT22;45916;52.734;6.544;2022-09-02T01:17:51;12.30;94.60
60039;DHT22;45916;52.734;6.544;2022-09-02T01:20:22;12.30;94.80
60039;DHT22;45916;52.734;6.544;2022-09-02T01:22:49;12.30;94.90
60039;DHT22;45916;52.734;6.544;2022-09-02T01:25:22;12.30;95.30
60039;DHT22;45916;52.734;6.544;2022-09-02T01:27:48;12.30;95.60
60039;DHT22;45916;52.734;6.544;2022-09-02T01:30:21;12.40;95.50
60039;DHT22;45916;52.734;6.544;2022-09-02T01:32:48;12.40;95.40
60039;DHT22;45916;52.734;6.544;2022-09-02T01:35:14;12.40;95.20
60039;DHT22;45916;52.734;6.544;2022-09-02T01:37:41;12.40;95.20
60039;DHT22;45916;52.734;6.544;2022-09-02T01:40:13;12.40;95.50
60039;DHT22;45916;52.734;6.544;2022-09-02T01:42:43;12.40;95.60
60039;DHT22;45916;52.734;6.544;2022-09-02T01:45:09;12.40;95.70
60039;DHT22;45916;52.734;6.544;2022-09-02T01:47:36;12.40;95.90
60039;DHT22;45916;52.734;6.544;2022-09-02T01:50:04;12.40;96.00
60039;DHT22;45916;52.734;6.544;2022-09-02T01:52:30;12.50;96.20
60039;DHT22;45916;52.734;6.544;2022-09-02T01:54:57;12.50;96.10
60039;DHT22;45916;52.734;6.544;2022-09-02T01:57:22;12.40;95.90
60039;DHT22;45916;52.734;6.544;2022-09-02T01:59:50;12.50;96.10
60039;DHT22;45916;52.734;6.544;2022-09-02T02:02:16;12.50;95.90
60039;DHT22;45916;52.734;6.544;2022-09-02T02:04:45;12.50;96.10
60039;DHT22;45916;52.734;6.544;2022-09-02T02:07:12;12.60;96.00
60039;DHT22;45916;52.734;6.544;2022-09-02T02:09:39;12.50;96.50
60039;DHT22;45916;52.734;6.544;2022-09-02T02:12:05;12.50;96.00
60039;DHT22;45916;52.734;6.544;2022-09-02T02:14:30;12.50;95.90
60039;DHT22;45916;52.734;6.544;2022-09-02T02:16:56;12.50;95.80
60039;DHT22;45916;52.734;6.544;2022-09-02T02:19:22;12.60;96.10
60039;DHT22;45916;52.734;6.544;2022-09-02T02:21:47;12.50;96.30
60039;DHT22;45916;52.734;6.544;2022-09-02T02:24:13;12.50;96.10
60039;DHT22;45916;52.734;6.544;2022-09-02T02:26:39;12.50;96.40
60039;DHT22;45916;52.734;6.544;2022-09-02T02:29:05;12.50;96.80
60039;DHT22;45916;52.734;6.544;2022-09-02T02:31:31;12.50;96.80
60039;DHT22;45916;52.734;6.544;2022-09-02T02:33:57;12.50;96.60
60039;DHT22;45916;52.734;6.544;2022-09-02T02:36:22;12.40;97.00
60039;DHT22;45916;52.734;6.544;2022-09-02T02:38:48;12.40;97.70
60039;DHT22;45916;52.734;6.544;2022-09-02T02:41:14;12.40;97.30
60039;DHT22;45916;52.734;6.544;2022-09-02T02:43:41;12.40;97.70
60039;DHT22;45916;52.734;6.544;2022-09-02T02:46:07;12.40;97.40
60039;DHT22;45916;52.734;6.544;2022-09-02T02:48:34;12.40;97.30
60039;DHT22;45916;52.734;6.544;2022-09-02T02:51:00;12.30;97.70
60039;DHT22;45916;52.734;6.544;2022-09-02T02:53:26;12.30;98.10
60039;DHT22;45916;52.734;6.544;2022-09-02T02:55:54;12.30;97.90
60039;DHT22;45916;52.734;6.544;2022-09-02T02:58:20;12.30;97.80
60039;DHT22;45916;52.734;6.544;2022-09-02T03:00:46;12.30;98.00
60039;DHT22;45916;52.734;6.544;2022-09-02T03:03:13;12.20;98.00
60039;DHT22;45916;52.734;6.544;2022-09-02T03:05:39;12.20;98.30
60039;DHT22;45916;52.734;6.544;2022-09-02T03:08:08;12.20;98.70
60039;DHT22;45916;52.734;6.544;2022-09-02T03:10:35;12.20;98.50
60039;DHT22;45916;52.734;6.544;2022-09-02T03:13:02;12.10;98.60
60039;DHT22;45916;52.734;6.544;2022-09-02T03:15:28;12.20;99.10
60039;DHT22;45916;52.734;6.544;2022-09-02T03:17:55;12.10;98.80
60039;DHT22;45916;52.734;6.544;2022-09-02T03:20:22;12.10;98.80
60039;DHT22;45916;52.734;6.544;2022-09-02T03:22:49;12.10;99.00
60039;DHT22;45916;52.734;6.544;2022-09-02T03:25:18;12.00;99.60
60039;DHT22;45916;52.734;6.544;2022-09-02T03:27:45;12.00;99.60
60039;DHT22;45916;52.734;6.544;2022-09-02T03:30:14;12.00;99.90
60039;DHT22;45916;52.734;6.544;2022-09-02T03:32:40;12.00;99.90
60039;DHT22;45916;52.734;6.544;2022-09-02T03:35:09;12.00;99.90
60039;DHT22;45916;52.734;6.544;2022-09-02T03:37:36;12.00;99.90
60039;DHT22;45916;52.734;6.544;2022-09-02T03:40:07;12.00;99.90
60039;DHT22;45916;52.734;6.544;2022-09-02T03:42:33;12.00;99.90
60039;DHT22;45916;52.734;6.544;2022-09-02T03:44:59;12.00;99.90
60039;DHT22;45916;52.734;6.544;2022-09-02T03:47:25;12.00;99.90
60039;DHT22;45916;52.734;6.544;2022-09-02T03:49:53;12.00;99.90
60039;DHT22;45916;52.734;6.544;2022-09-02T03:52:20;11.90;99.90
60039;DHT22;45916;52.734;6.544;2022-09-02T03:54:45;11.90;99.90
60039;DHT22;45916;52.734;6.544;2022-09-02T03:57:11;11.90;99.90
60039;DHT22;45916;52.734;6.544;2022-09-02T03:59:37;11.90;99.90
60039;DHT22;45916;52.734;6.544;2022-09-02T04:02:03;11.90;99.90
60039;DHT22;45916;52.734;6.544;2022-09-02T04:04:29;11.90;99.90
60039;DHT22;45916;52.734;6.544;2022-09-02T04:06:55;11.80;99.90
60039;DHT22;45916;52.734;6.544;2022-09-02T04:09:21;11.80;99.90
60039;DHT22;45916;52.734;6.544;2022-09-02T04:11:47;11.80;99.90
60039;DHT22;45916;52.734;6.544;2022-09-02T04:14:13;11.80;99.90
60039;DHT22;45916;52.734;6.544;2022-09-02T04:16:39;11.80;99.90
60039;DHT22;45916;52.734;6.544;2022-09-02T04:19:05;11.80;99.90
60039;DHT22;45916;52.734;6.544;2022-09-02T04:21:33;11.70;99.90
60039;DHT22;45916;52.734;6.544;2022-09-02T04:23:59;11.70;99.90
60039;DHT22;45916;52.734;6.544;2022-09-02T04:26:25;11.70;99.90
60039;DHT22;45916;52.734;6.544;2022-09-02T04:28:51;11.70;99.90
60039;DHT22;45916;52.734;6.544;2022-09-02T04:31:20;11.70;99.90
60039;DHT22;45916;52.734;6.544;2022-09-02T04:33:46;11.60;99.90
60039;DHT22;45916;52.734;6.544;2022-09-02T04:36:14;11.60;99.90
60039;DHT22;45916;52.734;6.544;2022-09-02T04:38:41;11.60;99.90
60039;DHT22;45916;52.734;6.544;2022-09-02T04:41:12;11.60;99.90
60039;DHT22;45916;52.734;6.544;2022-09-02T04:43:39;11.60;99.90
60039;DHT22;45916;52.734;6.544;2022-09-02T04:46:07;11.60;99.90
60039;DHT22;45916;52.734;6.544;2022-09-02T04:48:34;11.50;99.90
60039;DHT22;45916;52.734;6.544;2022-09-02T04:51:15;11.60;99.90
60039;DHT22;45916;52.734;6.544;2022-09-02T04:53:41;11.60;99.90
60039;DHT22;45916;52.734;6.544;2022-09-02T04:56:11;11.60;99.90
60039;DHT22;45916;52.734;6.544;2022-09-02T04:58:39;11.60;99.90
60039;DHT22;45916;52.734;6.544;2022-09-02T05:01:07;11.60;99.90
60039;DHT22;45916;52.734;6.544;2022-09-02T05:03:34;11.70;99.90
60039;DHT22;45916;52.734;6.544;2022-09-02T05:06:05;11.80;99.90
60039;DHT22;45916;52.734;6.544;2022-09-02T05:08:32;12.00;99.90
60039;DHT22;45916;52.734;6.544;2022-09-02T05:10:57;12.30;99.90
60039;DHT22;45916;52.734;6.544;2022-09-02T05:13:24;12.70;99.90
60039;DHT22;45916;52.734;6.544;2022-09-02T05:15:51;13.10;99.90
60039;DHT22;45916;52.734;6.544;2022-09-02T05:18:17;13.50;99.90
60039;DHT22;45916;52.734;6.544;2022-09-02T05:20:43;13.90;98.60
60039;DHT22;45916;52.734;6.544;2022-09-02T05:23:10;14.20;97.30
60039;DHT22;45916;52.734;6.544;2022-09-02T05:25:39;14.40;95.60
60039;DHT22;45916;52.734;6.544;2022-09-02T05:28:05;14.70;95.40
60039;DHT22;45916;52.734;6.544;2022-09-02T05:30:37;15.00;94.20
60039;DHT22;45916;52.734;6.544;2022-09-02T05:33:04;15.40;93.30
60039;DHT22;45916;52.734;6.544;2022-09-02T05:35:29;15.70;92.20
60039;DHT22;45916;52.734;6.544;2022-09-02T05:37:55;16.00;90.90
60039;DHT22;45916;52.734;6.544;2022-09-02T05:40:21;16.20;89.10
60039;DHT22;45916;52.734;6.544;2022-09-02T05:42:47;16.40;86.70
60039;DHT22;45916;52.734;6.544;2022-09-02T05:45:13;16.80;85.30
60039;DHT22;45916;52.734;6.544;2022-09-02T05:47:39;16.90;83.20
60039;DHT22;45916;52.734;6.544;2022-09-02T05:50:06;17.30;81.10
60039;DHT22;45916;52.734;6.544;2022-09-02T05:52:32;17.70;79.40
60039;DHT22;45916;52.734;6.544;2022-09-02T05:54:58;18.00;76.40
60039;DHT22;45916;52.734;6.544;2022-09-02T05:57:25;18.30;75.50
60039;DHT22;45916;52.734;6.544;2022-09-02T05:59:51;18.30;74.10
60039;DHT22;45916;52.734;6.544;2022-09-02T06:02:22;18.80;71.40
60039;DHT22;45916;52.734;6.544;2022-09-02T06:04:50;19.20;71.50
60039;DHT22;45916;52.734;6.544;2022-09-02T06:07:19;19.60;69.70
60039;DHT22;45916;52.734;6.544;2022-09-02T06:09:45;20.30;68.10
60039;DHT22;45916;52.734;6.544;2022-09-02T06:12:12;20.60;66.60
60039;DHT22;45916;52.734;6.544;2022-09-02T06:14:40;21.10;64.90
60039;DHT22;45916;52.734;6.544;2022-09-02T06:17:07;21.60;62.70
60039;DHT22;45916;52.734;6.544;2022-09-02T06:19:33;22.00;62.10
60039;DHT22;45916;52.734;6.544;2022-09-02T06:22:00;22.30;60.20
60039;DHT22;45916;52.734;6.544;2022-09-02T06:24:27;22.40;59.30
60039;DHT22;45916;52.734;6.544;2022-09-02T06:26:54;22.20;58.70
60039;DHT22;45916;52.734;6.544;2022-09-02T06:29:20;22.30;58.50
60039;DHT22;45916;52.734;6.544;2022-09-02T06:31:48;22.80;58.20
60039;DHT22;45916;52.734;6.544;2022-09-02T06:34:15;23.20;56.80
60039;DHT22;45916;52.734;6.544;2022-09-02T06:36:44;23.00;56.60
60039;DHT22;45916;52.734;6.544;2022-09-02T06:39:13;23.10;56.70
60039;DHT22;45916;52.734;6.544;2022-09-02T06:41:41;23.80;55.40
60039;DHT22;45916;52.734;6.544;2022-09-02T06:44:08;24.20;53.90
60039;DHT22;45916;52.734;6.544;2022-09-02T06:46:37;24.50;53.70
60039;DHT22;45916;52.734;6.544;2022-09-02T06:49:05;24.70;52.90
60039;DHT22;45916;52.734;6.544;2022-09-02T06:51:36;25.00;52.20
60039;DHT22;45916;52.734;6.544;2022-09-02T06:54:04;25.50;53.00
60039;DHT22;45916;52.734;6.544;2022-09-02T06:56:30;26.00;51.10
60039;DHT22;45916;52.734;6.544;2022-09-02T06:58:56;26.30;49.40
60039;DHT22;45916;52.734;6.544;2022-09-02T07:01:25;25.90;49.30
60039;DHT22;45916;52.734;6.544;2022-09-02T07:03:51;25.90;49.50
60039;DHT22;45916;52.734;6.544;2022-09-02T07:06:38;25.50;49.10
60039;DHT22;45916;52.734;6.544;2022-09-02T07:09:05;25.70;49.60
60039;DHT22;45916;52.734;6.544;2022-09-02T07:11:31;25.70;48.90
60039;DHT22;45916;52.734;6.544;2022-09-02T07:13:58;25.70;49.00
60039;DHT22;45916;52.734;6.544;2022-09-02T07:16:33;26.20;49.20
60039;DHT22;45916;52.734;6.544;2022-09-02T07:18:59;26.60;47.60
60039;DHT22;45916;52.734;6.544;2022-09-02T07:21:27;26.90;47.70
60039;DHT22;45916;52.734;6.544;2022-09-02T07:23:57;27.30;47.00
60039;DHT22;45916;52.734;6.544;2022-09-02T07:26:25;27.50;46.40
60039;DHT22;45916;52.734;6.544;2022-09-02T07:28:51;27.50;45.20
60039;DHT22;45916;52.734;6.544;2022-09-02T07:31:17;27.50;45.40
60039;DHT22;45916;52.734;6.544;2022-09-02T07:33:44;26.80;47.10
60039;DHT22;45916;52.734;6.544;2022-09-02T07:36:11;26.50;47.30
60039;DHT22;45916;52.734;6.544;2022-09-02T07:38:38;26.90;46.80
60039;DHT22;45916;52.734;6.544;2022-09-02T07:41:05;27.30;48.40
60039;DHT22;45916;52.734;6.544;2022-09-02T07:43:33;27.60;45.80
60039;DHT22;45916;52.734;6.544;2022-09-02T07:45:59;28.00;45.00
60039;DHT22;45916;52.734;6.544;2022-09-02T07:48:25;27.60;45.90
60039;DHT22;45916;52.734;6.544;2022-09-02T07:50:51;28.10;45.30
60039;DHT22;45916;52.734;6.544;2022-09-02T07:53:18;28.70;44.20
60039;DHT22;45916;52.734;6.544;2022-09-02T07:55:44;28.20;44.50
60039;DHT22;45916;52.734;6.544;2022-09-02T07:58:13;28.50;44.80
60039;DHT22;45916;52.734;6.544;2022-09-02T08:00:39;29.00;43.80
60039;DHT22;45916;52.734;6.544;2022-09-02T08:03:06;29.60;43.90
60039;DHT22;45916;52.734;6.544;2022-09-02T08:05:33;30.00;42.50
60039;DHT22;45916;52.734;6.544;2022-09-02T08:07:59;29.60;42.00
60039;DHT22;45916;52.734;6.544;2022-09-02T08:10:25;29.20;42.80
60039;DHT22;45916;52.734;6.544;2022-09-02T08:12:56;28.80;43.20
60039;DHT22;45916;52.734;6.544;2022-09-02T08:15:22;29.60;42.10
60039;DHT22;45916;52.734;6.544;2022-09-02T08:17:48;29.50;41.80
60039;DHT22;45916;52.734;6.544;2022-09-02T08:20:14;29.30;41.30
60039;DHT22;45916;52.734;6.544;2022-09-02T08:22:41;28.60;41.80
60039;DHT22;45916;52.734;6.544;2022-09-02T08:25:08;29.00;42.10
60039;DHT22;45916;52.734;6.544;2022-09-02T08:27:35;28.60;42.70
60039;DHT22;45916;52.734;6.544;2022-09-02T08:30:02;28.30;43.20
60039;DHT22;45916;52.734;6.544;2022-09-02T08:32:28;29.30;42.80
60039;DHT22;45916;52.734;6.544;2022-09-02T08:34:55;29.20;41.80
60039;DHT22;45916;52.734;6.544;2022-09-02T08:37:20;28.70;43.20
60039;DHT22;45916;52.734;6.544;2022-09-02T08:39:47;29.60;41.80
60039;DHT22;45916;52.734;6.544;2022-09-02T08:42:27;29.50;41.80
60039;DHT22;45916;52.734;6.544;2022-09-02T08:44:59;29.80;41.10
60039;DHT22;45916;52.734;6.544;2022-09-02T08:47:30;29.80;40.40
60039;DHT22;45916;52.734;6.544;2022-09-02T08:50:00;29.20;41.80
60039;DHT22;45916;52.734;6.544;2022-09-02T08:52:46;29.80;41.60
60039;DHT22;45916;52.734;6.544;2022-09-02T08:55:22;30.10;41.70
60039;DHT22;45916;52.734;6.544;2022-09-02T08:57:50;30.30;40.50
60039;DHT22;45916;52.734;6.544;2022-09-02T09:00:16;30.70;40.50
60039;DHT22;45916;52.734;6.544;2022-09-02T09:05:22;30.70;39.10
60039;DHT22;45916;52.734;6.544;2022-09-02T09:13:54;30.40;39.80
60039;DHT22;45916;52.734;6.544;2022-09-02T09:21:29;31.20;39.40
60039;DHT22;45916;52.734;6.544;2022-09-02T09:23:56;30.90;39.30
60039;DHT22;45916;52.734;6.544;2022-09-02T09:26:28;31.00;38.40
60039;DHT22;45916;52.734;6.544;2022-09-02T09:28:55;31.00;39.30
60039;DHT22;45916;52.734;6.544;2022-09-02T09:31:28;31.40;38.70
60039;DHT22;45916;52.734;6.544;2022-09-02T09:34:08;31.10;38.00
60039;DHT22;45916;52.734;6.544;2022-09-02T09:36:43;31.00;39.00
60039;DHT22;45916;52.734;6.544;2022-09-02T09:42:10;31.50;37.10
60039;DHT22;45916;52.734;6.544;2022-09-02T09:44:45;31.20;37.60
60039;DHT22;45916;52.734;6.544;2022-09-02T09:47:20;31.60;38.00
60039;DHT22;45916;52.734;6.544;2022-09-02T09:50:16;31.70;37.20
60039;DHT22;45916;52.734;6.544;2022-09-02T09:52:43;32.30;38.20
60039;DHT22;45916;52.734;6.544;2022-09-02T09:57:42;32.60;36.30
60039;DHT22;45916;52.734;6.544;2022-09-02T10:00:28;32.40;36.70
60039;DHT22;45916;52.734;6.544;2022-09-02T10:02:59;32.60;36.10
60039;DHT22;45916;52.734;6.544;2022-09-02T10:08:00;31.10;38.10
60039;DHT22;45916;52.734;6.544;2022-09-02T10:10:29;31.30;38.20
60039;DHT22;45916;52.734;6.544;2022-09-02T10:13:16;31.70;37.20
60039;DHT22;45916;52.734;6.544;2022-09-02T10:18:58;32.50;36.40
60039;DHT22;45916;52.734;6.544;2022-09-02T10:27:16;32.00;36.30
60039;DHT22;45916;52.734;6.544;2022-09-02T10:32:33;31.30;36.60
60039;DHT22;45916;52.734;6.544;2022-09-02T10:38:25;30.80;36.80
60039;DHT22;45916;52.734;6.544;2022-09-02T10:46:24;31.20;36.80
60039;DHT22;45916;52.734;6.544;2022-09-02T10:54:32;31.00;36.80
60039;DHT22;45916;52.734;6.544;2022-09-02T10:57:08;31.20;38.00
60039;DHT22;45916;52.734;6.544;2022-09-02T11:05:11;31.80;36.30
60039;DHT22;45916;52.734;6.544;2022-09-02T11:13:08;29.30;37.00
60039;DHT22;45916;52.734;6.544;2022-09-02T11:15:39;28.70;38.60
60039;DHT22;45916;52.734;6.544;2022-09-02T11:18:17;28.00;39.40
60039;DHT22;45916;52.734;6.544;2022-09-02T11:21:00;27.20;39.20
60039;DHT22;45916;52.734;6.544;2022-09-02T11:26:04;26.10;42.30
60039;DHT22;45916;52.734;6.544;2022-09-02T11:31:19;25.70;43.40
60039;DHT22;45916;52.734;6.544;2022-09-02T11:34:02;25.60;43.90
60039;DHT22;45916;52.734;6.544;2022-09-02T11:36:37;25.50;44.60
60039;DHT22;45916;52.734;6.544;2022-09-02T11:50:51;25.20;45.30
60039;DHT22;45916;52.734;6.544;2022-09-02T11:53:27;25.10;44.50
60039;DHT22;45916;52.734;6.544;2022-09-02T11:56:00;25.00;45.60
60039;DHT22;45916;52.734;6.544;2022-09-02T12:03:28;25.00;45.20
60039;DHT22;45916;52.734;6.544;2022-09-02T12:06:13;25.00;44.90
60039;DHT22;45916;52.734;6.544;2022-09-02T12:11:05;25.00;44.50
60039;DHT22;45916;52.734;6.544;2022-09-02T12:13:36;25.00;44.80
60039;DHT22;45916;52.734;6.544;2022-09-02T12:18:38;25.00;44.60
60039;DHT22;45916;52.734;6.544;2022-09-02T12:21:06;25.00;44.60
60039;DHT22;45916;52.734;6.544;2022-09-02T12:31:52;25.20;44.80
60039;DHT22;45916;52.734;6.544;2022-09-02T12:36:50;25.00;44.70
60039;DHT22;45916;52.734;6.544;2022-09-02T12:52:43;24.90;44.40
60039;DHT22;45916;52.734;6.544;2022-09-02T12:57:46;25.00;45.00
60039;DHT22;45916;52.734;6.544;2022-09-02T13:00:14;25.00;44.20
60039;DHT22;45916;52.734;6.544;2022-09-02T13:06:10;25.00;43.70
60039;DHT22;45916;52.734;6.544;2022-09-02T13:12:15;25.20;43.00
60039;DHT22;45916;52.734;6.544;2022-09-02T13:14:57;25.30;43.90
60039;DHT22;45916;52.734;6.544;2022-09-02T13:26:04;24.70;44.20
60039;DHT22;45916;52.734;6.544;2022-09-02T13:28:59;24.60;44.80
60039;DHT22;45916;52.734;6.544;2022-09-02T13:31:30;24.70;44.60
60039;DHT22;45916;52.734;6.544;2022-09-02T13:34:09;24.60;45.30
60039;DHT22;45916;52.734;6.544;2022-09-02T13:36:43;24.40;45.40
60039;DHT22;45916;52.734;6.544;2022-09-02T13:39:39;24.20;46.00
60039;DHT22;45916;52.734;6.544;2022-09-02T13:42:16;24.10;46.50
60039;DHT22;45916;52.734;6.544;2022-09-02T13:44:44;24.20;47.90
60039;DHT22;45916;52.734;6.544;2022-09-02T13:47:17;24.40;46.80
60039;DHT22;45916;52.734;6.544;2022-09-02T13:49:48;24.60;46.20
60039;DHT22;45916;52.734;6.544;2022-09-02T13:52:18;24.80;45.50
60039;DHT22;45916;52.734;6.544;2022-09-02T13:54:50;24.90;47.40
60039;DHT22;45916;52.734;6.544;2022-09-02T13:57:21;25.00;46.90
60039;DHT22;45916;52.734;6.544;2022-09-02T13:59:52;25.10;46.00
60039;DHT22;45916;52.734;6.544;2022-09-02T14:02:27;25.20;45.60
60039;DHT22;45916;52.734;6.544;2022-09-02T14:05:25;25.10;44.40
60039;DHT22;45916;52.734;6.544;2022-09-02T14:07:54;25.00;45.50
60039;DHT22;45916;52.734;6.544;2022-09-02T14:10:23;24.90;44.30
60039;DHT22;45916;52.734;6.544;2022-09-02T14:12:52;25.00;44.50
60039;DHT22;45916;52.734;6.544;2022-09-02T14:15:29;25.10;44.80
60039;DHT22;45916;52.734;6.544;2022-09-02T14:18:25;25.10;44.70
60039;DHT22;45916;52.734;6.544;2022-09-02T14:21:01;25.00;43.20
60039;DHT22;45916;52.734;6.544;2022-09-02T14:23:31;24.80;43.60
60039;DHT22;45916;52.734;6.544;2022-09-02T14:26:01;24.80;43.90
60039;DHT22;45916;52.734;6.544;2022-09-02T14:28:32;24.70;43.70
60039;DHT22;45916;52.734;6.544;2022-09-02T14:31:02;24.70;44.50
60039;DHT22;45916;52.734;6.544;2022-09-02T14:33:41;24.60;44.70
60039;DHT22;45916;52.734;6.544;2022-09-02T14:38:53;24.50;45.00
60039;DHT22;45916;52.734;6.544;2022-09-02T14:41:49;24.70;45.10
60039;DHT22;45916;52.734;6.544;2022-09-02T14:44:38;25.00;44.10
60039;DHT22;45916;52.734;6.544;2022-09-02T14:47:13;25.10;44.70
60039;DHT22;45916;52.734;6.544;2022-09-02T14:49:46;25.00;43.20
60039;DHT22;45916;52.734;6.544;2022-09-02T14:52:24;24.90;43.20
60039;DHT22;45916;52.734;6.544;2022-09-02T14:54:51;24.80;43.20
60039;DHT22;45916;52.734;6.544;2022-09-02T14:59:48;24.50;44.10
60039;DHT22;45916;52.734;6.544;2022-09-02T15:05:04;24.60;44.90
60039;DHT22;45916;52.734;6.544;2022-09-02T15:07:30;24.60;44.50
60039;DHT22;45916;52.734;6.544;2022-09-02T15:09:56;24.60;43.70
60039;DHT22;45916;52.734;6.544;2022-09-02T15:12:26;24.60;43.70
60039;DHT22;45916;52.734;6.544;2022-09-02T15:14:54;24.60;43.50
60039;DHT22;45916;52.734;6.544;2022-09-02T15:17:21;24.70;44.20
60039;DHT22;45916;52.734;6.544;2022-09-02T15:19:47;24.70;43.60
60039;DHT22;45916;52.734;6.544;2022-09-02T15:22:13;24.70;44.70
60039;DHT22;45916;52.734;6.544;2022-09-02T15:24:39;24.50;44.00
60039;DHT22;45916;52.734;6.544;2022-09-02T15:27:06;24.50;44.00
60039;DHT22;45916;52.734;6.544;2022-09-02T15:29:32;24.50;44.50
60039;DHT22;45916;52.734;6.544;2022-09-02T15:31:57;24.40;44.50
60039;DHT22;45916;52.734;6.544;2022-09-02T15:34:24;24.40;45.00
60039;DHT22;45916;52.734;6.544;2022-09-02T15:36:50;24.40;45.10
60039;DHT22;45916;52.734;6.544;2022-09-02T15:39:16;24.40;45.70
60039;DHT22;45916;52.734;6.544;2022-09-02T15:41:43;24.40;45.20
60039;DHT22;45916;52.734;6.544;2022-09-02T15:44:09;24.40;45.30
60039;DHT22;45916;52.734;6.544;2022-09-02T15:46:36;24.30;45.50
60039;DHT22;45916;52.734;6.544;2022-09-02T15:49:04;24.30;45.90
60039;DHT22;45916;52.734;6.544;2022-09-02T15:51:31;24.40;46.50
60039;DHT22;45916;52.734;6.544;2022-09-02T15:54:00;24.40;46.00
60039;DHT22;45916;52.734;6.544;2022-09-02T15:56:27;24.50;45.40
60039;DHT22;45916;52.734;6.544;2022-09-02T15:58:58;24.60;45.50
60039;DHT22;45916;52.734;6.544;2022-09-02T16:01:29;24.50;45.70
60039;DHT22;45916;52.734;6.544;2022-09-02T16:03:55;24.50;46.10
60039;DHT22;45916;52.734;6.544;2022-09-02T16:06:23;24.50;46.20
60039;DHT22;45916;52.734;6.544;2022-09-02T16:08:50;24.60;45.30
60039;DHT22;45916;52.734;6.544;2022-09-02T16:11:16;24.50;45.70
60039;DHT22;45916;52.734;6.544;2022-09-02T16:13:42;24.50;45.10
60039;DHT22;45916;52.734;6.544;2022-09-02T16:16:10;24.40;46.20
60039;DHT22;45916;52.734;6.544;2022-09-02T16:18:37;24.40;46.20
60039;DHT22;45916;52.734;6.544;2022-09-02T16:21:04;24.30;45.50
60039;DHT22;45916;52.734;6.544;2022-09-02T16:23:30;24.10;46.10
60039;DHT22;45916;52.734;6.544;2022-09-02T16:26:21;23.90;46.00
60039;DHT22;45916;52.734;6.544;2022-09-02T16:28:47;23.80;45.80
60039;DHT22;45916;52.734;6.544;2022-09-02T16:31:16;23.60;46.20
60039;DHT22;45916;52.734;6.544;2022-09-02T16:33:43;23.50;46.60
60039;DHT22;45916;52.734;6.544;2022-09-02T16:36:10;23.30;47.30
60039;DHT22;45916;52.734;6.544;2022-09-02T16:38:36;23.20;47.90
60039;DHT22;45916;52.734;6.544;2022-09-02T16:41:02;23.10;48.20
60039;DHT22;45916;52.734;6.544;2022-09-02T16:43:31;23.00;49.10
60039;DHT22;45916;52.734;6.544;2022-09-02T16:45:59;23.00;49.40
60039;DHT22;45916;52.734;6.544;2022-09-02T16:48:30;23.00;49.00
60039;DHT22;45916;52.734;6.544;2022-09-02T16:51:01;22.90;49.70
60039;DHT22;45916;52.734;6.544;2022-09-02T16:53:29;22.90;49.20
60039;DHT22;45916;52.734;6.544;2022-09-02T16:55:55;22.90;49.00
60039;DHT22;45916;52.734;6.544;2022-09-02T16:58:21;22.90;49.20
60039;DHT22;45916;52.734;6.544;2022-09-02T17:00:47;22.90;49.70
60039;DHT22;45916;52.734;6.544;2022-09-02T17:03:13;22.90;49.60
60039;DHT22;45916;52.734;6.544;2022-09-02T17:05:39;22.90;49.50
60039;DHT22;45916;52.734;6.544;2022-09-02T17:08:05;22.90;49.50
60039;DHT22;45916;52.734;6.544;2022-09-02T17:10:33;23.00;49.50
60039;DHT22;45916;52.734;6.544;2022-09-02T17:12:59;22.90;49.80
60039;DHT22;45916;52.734;6.544;2022-09-02T17:15:27;22.90;49.60
60039;DHT22;45916;52.734;6.544;2022-09-02T17:17:53;23.00;49.10
60039;DHT22;45916;52.734;6.544;2022-09-02T17:20:19;22.90;48.60
60039;DHT22;45916;52.734;6.544;2022-09-02T17:22:45;22.80;48.90
60039;DHT22;45916;52.734;6.544;2022-09-02T17:25:11;22.80;49.00
60039;DHT22;45916;52.734;6.544;2022-09-02T17:27:38;22.80;48.80
60039;DHT22;45916;52.734;6.544;2022-09-02T17:30:05;22.70;49.30
60039;DHT22;45916;52.734;6.544;2022-09-02T17:32:31;22.60;49.70
60039;DHT22;45916;52.734;6.544;2022-09-02T17:34:57;22.60;49.80
60039;DHT22;45916;52.734;6.544;2022-09-02T17:37:23;22.60;49.80
60039;DHT22;45916;52.734;6.544;2022-09-02T17:39:51;22.50;50.40
60039;DHT22;45916;52.734;6.544;2022-09-02T17:42:18;22.40;50.90
60039;DHT22;45916;52.734;6.544;2022-09-02T17:44:44;22.30;51.60
60039;DHT22;45916;52.734;6.544;2022-09-02T17:47:18;22.20;51.80
60039;DHT22;45916;52.734;6.544;2022-09-02T17:49:45;22.10;52.30
60039;DHT22;45916;52.734;6.544;2022-09-02T17:52:16;22.00;52.20
60039;DHT22;45916;52.734;6.544;2022-09-02T17:54:43;21.90;53.10
60039;DHT22;45916;52.734;6.544;2022-09-02T18:05:23;21.20;54.00